createdAt,value
2019-01-15T00:01:14.666Z,18.57
2019-01-15T00:03:44.036Z,17.17
2019-01-15T00:06:14.532Z,16.97
2019-01-15T00:08:43.985Z,14.97
2019-01-15T00:11:13.448Z,14.67
2019-01-15T00:13:42.874Z,16.87
2019-01-15T00:16:15.470Z,20.00
2019-01-15T00:18:52.899Z,11.20
2019-01-15T00:21:26.508Z,16.73
2019-01-15T00:23:56.008Z,14.63
2019-01-15T00:26:35.213Z,15.43
2019-01-15T00:29:06.861Z,18.23
2019-01-15T00:31:40.415Z,18.90
2019-01-15T00:34:09.842Z,23.10
2019-01-15T00:36:39.231Z,18.77
2019-01-15T00:39:08.906Z,19.47
2019-01-15T00:41:38.465Z,19.77
2019-01-15T00:44:08.940Z,19.43
2019-01-15T00:46:38.466Z,19.77
2019-01-15T00:49:10.905Z,16.03
2019-01-15T00:51:40.353Z,17.50
2019-01-15T00:54:14.885Z,22.87
2019-01-15T00:56:44.513Z,23.70
2019-01-15T00:59:19.963Z,19.07
2019-01-15T01:01:49.377Z,19.03
2019-01-15T01:04:20.848Z,21.80
2019-01-15T01:06:50.235Z,20.00
2019-01-15T01:09:20.082Z,17.07
2019-01-15T01:11:56.659Z,21.03
2019-01-15T01:14:32.125Z,21.43
2019-01-15T01:17:02.545Z,18.47
2019-01-15T01:19:48.068Z,20.10
2019-01-15T01:22:17.593Z,18.63
2019-01-15T01:24:52.887Z,22.87
2019-01-15T01:27:24.295Z,23.60
2019-01-15T01:29:55.738Z,19.27
2019-01-15T01:32:31.201Z,22.50
2019-01-15T01:35:02.715Z,18.70
2019-01-15T01:37:32.153Z,20.67
2019-01-15T01:40:02.540Z,20.63
2019-01-15T01:42:35.949Z,24.13
2019-01-15T01:45:15.965Z,24.77
2019-01-15T01:47:48.602Z,26.60
2019-01-15T01:50:19.045Z,22.77
2019-01-15T01:52:48.429Z,25.63
2019-01-15T01:55:18.922Z,20.27
2019-01-15T01:57:48.384Z,18.83
2019-01-15T02:00:20.016Z,22.73
2019-01-15T02:02:55.279Z,23.87
2019-01-15T02:05:25.817Z,19.80
2019-01-15T02:07:55.198Z,20.23
2019-01-15T02:10:24.771Z,18.07
2019-01-15T02:13:00.043Z,22.53
2019-01-15T02:15:31.699Z,23.03
2019-01-15T02:18:01.158Z,26.53
2019-01-15T02:20:37.449Z,20.73
2019-01-15T02:23:07.833Z,19.93
2019-01-15T02:25:37.283Z,21.30
2019-01-15T02:28:06.674Z,20.47
2019-01-15T02:30:36.108Z,17.97
2019-01-15T02:33:10.913Z,17.03
2019-01-15T02:35:46.178Z,20.27
2019-01-15T02:38:26.577Z,23.33
2019-01-15T02:41:00.184Z,23.57
2019-01-15T02:43:29.621Z,19.73
2019-01-15T02:45:59.125Z,21.77
2019-01-15T02:48:36.602Z,21.37
2019-01-15T02:51:06.370Z,20.07
2019-01-15T02:53:35.845Z,21.47
2019-01-15T02:56:05.417Z,23.63
2019-01-15T02:58:40.931Z,24.37
2019-01-15T03:01:12.455Z,27.00
2019-01-15T03:03:41.920Z,23.10
2019-01-15T03:06:11.349Z,23.93
2019-01-15T03:08:41.755Z,28.47
2019-01-15T03:11:13.270Z,24.23
2019-01-15T03:13:42.679Z,22.20
2019-01-15T03:16:12.192Z,23.67
2019-01-15T03:18:52.634Z,23.20
2019-01-15T03:21:25.169Z,24.20
2019-01-15T03:23:54.652Z,25.70
2019-01-15T03:26:24.503Z,24.00
2019-01-15T03:29:00.178Z,23.37
2019-01-15T03:31:34.940Z,25.10
2019-01-15T03:34:06.353Z,29.10
2019-01-15T03:36:37.865Z,25.40
2019-01-15T03:39:09.568Z,30.43
2019-01-15T03:41:51.954Z,31.27
2019-01-15T03:44:24.654Z,33.07
2019-01-15T03:46:54.099Z,30.67
2019-01-15T03:49:32.665Z,24.50
2019-01-15T03:52:02.139Z,27.70
2019-01-15T03:54:32.651Z,28.57
2019-01-15T03:57:04.094Z,29.67
2019-01-15T03:59:33.516Z,24.47
2019-01-15T04:02:05.054Z,26.83
2019-01-15T04:04:35.064Z,25.97
2019-01-15T04:07:04.976Z,20.70
2019-01-15T04:09:36.010Z,26.73
2019-01-15T04:12:07.432Z,22.93
2019-01-15T04:14:36.844Z,20.40
2019-01-15T04:17:14.578Z,23.50
2019-01-15T04:19:43.982Z,25.47
2019-01-15T04:22:13.475Z,25.27
2019-01-15T04:24:46.844Z,23.57
2019-01-15T04:27:18.241Z,26.43
2019-01-15T04:29:49.712Z,23.23
2019-01-15T04:32:21.339Z,21.40
2019-01-15T04:34:50.834Z,23.97
2019-01-15T04:37:20.337Z,23.73
2019-01-15T04:39:49.773Z,18.97
2019-01-15T04:42:19.306Z,29.83
2019-01-15T04:44:48.852Z,22.97
2019-01-15T04:47:18.538Z,23.67
2019-01-15T04:49:47.973Z,26.63
2019-01-15T04:52:20.010Z,25.37
2019-01-15T04:54:51.488Z,24.73
2019-01-15T04:57:21.075Z,18.73
2019-01-15T04:59:50.728Z,21.27
2019-01-15T05:02:32.732Z,22.17
2019-01-15T05:05:02.150Z,20.70
2019-01-15T05:07:31.637Z,21.23
2019-01-15T05:10:01.143Z,23.40
2019-01-15T05:12:32.448Z,19.60
2019-01-15T05:15:01.943Z,19.93
2019-01-15T05:17:31.392Z,21.77
2019-01-15T05:20:01.234Z,21.80
2019-01-15T05:22:30.700Z,16.43
2019-01-15T05:25:08.756Z,18.33
2019-01-15T05:27:38.239Z,16.17
2019-01-15T05:30:17.869Z,18.83
2019-01-15T05:33:01.490Z,14.87
2019-01-15T05:35:37.765Z,16.83
2019-01-15T05:38:07.252Z,20.30
2019-01-15T05:40:37.693Z,15.30
2019-01-15T05:43:07.219Z,18.97
2019-01-15T05:45:38.216Z,19.87
2019-01-15T05:48:15.735Z,20.70
2019-01-15T05:51:02.194Z,23.07
2019-01-15T05:53:33.656Z,23.73
2019-01-15T05:56:06.237Z,23.60
2019-01-15T05:58:35.734Z,23.13
2019-01-15T06:01:05.292Z,24.20
2019-01-15T06:03:34.907Z,26.93
2019-01-15T06:06:04.416Z,23.43
2019-01-15T06:08:36.614Z,26.77
2019-01-15T06:11:11.146Z,24.20
2019-01-15T06:13:44.816Z,25.93
2019-01-15T06:16:14.252Z,26.83
2019-01-15T06:18:43.781Z,24.47
2019-01-15T06:21:14.217Z,26.43
2019-01-15T06:23:43.698Z,50.23
2019-01-15T06:26:15.264Z,25.00
2019-01-15T06:28:46.114Z,24.50
2019-01-15T06:31:18.564Z,28.00
2019-01-15T06:33:55.131Z,27.63
2019-01-15T06:36:24.653Z,29.73
2019-01-15T06:38:55.164Z,25.70
2019-01-15T06:41:25.695Z,24.17
2019-01-15T06:43:57.215Z,26.57
2019-01-15T06:46:28.631Z,29.37
2019-01-15T06:48:58.158Z,26.17
2019-01-15T06:51:33.756Z,26.30
2019-01-15T06:54:05.308Z,22.43
2019-01-15T06:56:37.897Z,21.30
2019-01-15T06:59:07.363Z,24.53
2019-01-15T07:01:37.814Z,23.07
2019-01-15T07:04:07.237Z,21.70
2019-01-15T07:06:36.677Z,26.70
2019-01-15T07:09:09.422Z,23.33
2019-01-15T07:11:40.950Z,26.37
2019-01-15T07:14:11.441Z,21.13
2019-01-15T07:16:43.078Z,22.77
2019-01-15T07:19:12.565Z,22.23
2019-01-15T07:21:44.697Z,18.53
2019-01-15T07:24:15.570Z,24.03
2019-01-15T07:26:50.829Z,19.97
2019-01-15T07:29:20.420Z,21.47
2019-01-15T07:31:50.911Z,18.57
2019-01-15T07:34:23.518Z,25.63
2019-01-15T07:36:54.011Z,21.03
2019-01-15T07:39:23.463Z,25.37
2019-01-15T07:41:54.969Z,26.80
2019-01-15T07:44:24.508Z,27.03
2019-01-15T07:46:56.244Z,24.80
2019-01-15T07:49:27.932Z,28.13
2019-01-15T07:52:00.437Z,29.97
2019-01-15T07:54:30.923Z,31.10
2019-01-15T07:57:00.402Z,30.23
2019-01-15T07:59:29.865Z,30.47
2019-01-15T08:01:59.282Z,35.30
2019-01-15T08:04:32.034Z,28.20
2019-01-15T08:07:01.471Z,31.00
2019-01-15T08:09:31.002Z,30.63
2019-01-15T08:12:03.622Z,31.47
2019-01-15T08:14:39.372Z,28.87
2019-01-15T08:17:17.897Z,28.57
2019-01-15T08:19:49.385Z,24.63
2019-01-15T08:22:21.087Z,26.77
2019-01-15T08:24:50.586Z,28.10
2019-01-15T08:27:42.967Z,27.30
2019-01-15T08:30:21.490Z,26.37
2019-01-15T08:32:50.923Z,28.20
2019-01-15T08:35:26.535Z,25.13
2019-01-15T08:37:55.971Z,25.27
2019-01-15T08:40:29.553Z,27.80
2019-01-15T08:43:00.155Z,25.67
2019-01-15T08:45:29.689Z,27.63
2019-01-15T08:48:10.564Z,24.00
2019-01-15T08:50:54.087Z,24.80
2019-01-15T08:53:26.619Z,23.03
2019-01-15T08:55:59.236Z,27.10
2019-01-15T08:58:28.844Z,25.87
2019-01-15T09:01:02.464Z,28.20
2019-01-15T09:03:31.982Z,25.23
2019-01-15T09:06:01.569Z,29.37
2019-01-15T09:08:31.092Z,25.37
2019-01-15T09:11:14.661Z,25.93
2019-01-15T09:13:45.157Z,29.47
2019-01-15T09:16:24.077Z,27.20
2019-01-15T09:18:55.648Z,30.17
2019-01-15T09:21:26.142Z,33.30
2019-01-15T09:23:55.621Z,25.37
2019-01-15T09:26:25.178Z,28.57
2019-01-15T09:28:54.661Z,28.87
2019-01-15T09:31:26.633Z,27.13
2019-01-15T09:33:56.350Z,31.43
2019-01-15T09:36:26.878Z,26.80
2019-01-15T09:38:56.294Z,33.37
2019-01-15T09:41:26.794Z,27.83
2019-01-15T09:43:57.403Z,28.43
2019-01-15T09:46:26.932Z,36.07
2019-01-15T09:49:05.326Z,31.00
2019-01-15T09:51:34.794Z,35.53
2019-01-15T09:54:10.104Z,35.60
2019-01-15T09:56:47.701Z,31.67
2019-01-15T09:59:17.135Z,32.33
2019-01-15T10:01:46.622Z,28.27
2019-01-15T10:04:21.999Z,32.00
2019-01-15T10:06:52.411Z,29.83
2019-01-15T10:09:21.842Z,32.37
2019-01-15T10:11:52.629Z,33.60
2019-01-15T10:14:30.072Z,29.20
2019-01-15T10:16:59.608Z,26.83
2019-01-15T10:19:29.127Z,28.43
2019-01-15T10:21:58.703Z,29.13
2019-01-15T10:24:31.777Z,30.27
2019-01-15T10:27:01.456Z,30.27
2019-01-15T10:29:33.356Z,27.43
2019-01-15T10:32:56.151Z,27.50
2019-01-15T10:35:47.631Z,31.17
2019-01-15T10:38:17.078Z,23.17
2019-01-15T10:40:46.706Z,21.33
2019-01-15T10:43:17.147Z,25.40
2019-01-15T10:45:46.713Z,21.40
2019-01-15T10:48:23.713Z,22.60
2019-01-15T10:50:53.222Z,20.70
2019-01-15T10:53:25.156Z,19.30
2019-01-15T10:55:54.701Z,22.97
2019-01-15T10:58:32.624Z,21.60
2019-01-15T11:01:03.178Z,27.07
2019-01-15T11:03:45.737Z,21.73
2019-01-15T11:06:15.205Z,20.37
2019-01-15T11:08:44.590Z,21.47
2019-01-15T11:11:15.479Z,20.47
2019-01-15T11:13:45.995Z,28.23
2019-01-15T11:16:22.828Z,22.70
2019-01-15T11:18:54.337Z,23.47
2019-01-15T11:21:23.873Z,25.50
2019-01-15T11:23:55.315Z,24.93
2019-01-15T11:26:24.850Z,26.60
2019-01-15T11:28:55.270Z,22.47
2019-01-15T11:31:24.815Z,24.37
2019-01-15T11:33:56.240Z,25.70
2019-01-15T11:36:25.700Z,28.57
2019-01-15T11:38:59.310Z,23.83
2019-01-15T11:41:35.889Z,21.93
2019-01-15T11:44:05.503Z,18.23
2019-01-15T11:46:35.234Z,20.03
2019-01-15T11:49:04.950Z,20.30
2019-01-15T11:51:34.392Z,22.07
2019-01-15T11:54:03.933Z,22.17
2019-01-15T11:56:33.367Z,18.10
2019-01-15T11:59:02.805Z,23.63
2019-01-15T12:01:45.587Z,17.87
2019-01-15T12:04:43.068Z,19.00
2019-01-15T12:07:31.437Z,16.47
2019-01-15T12:10:38.114Z,19.37
2019-01-15T12:13:40.346Z,20.00
2019-01-15T12:16:37.053Z,18.07
2019-01-15T12:19:24.226Z,17.77
2019-01-15T12:22:27.545Z,19.87
2019-01-15T12:25:18.755Z,18.67
2019-01-15T12:27:55.330Z,14.97
2019-01-15T12:30:41.564Z,13.40
2019-01-15T12:33:28.382Z,20.10
2019-01-15T12:36:26.895Z,14.80
2019-01-15T12:39:13.832Z,20.07
2019-01-15T12:42:01.040Z,19.23
2019-01-15T12:44:49.286Z,16.70
2019-01-15T12:47:40.618Z,14.17
2019-01-15T12:50:38.893Z,16.67
2019-01-15T12:53:27.260Z,14.23
2019-01-15T12:56:08.055Z,16.70
2019-01-15T12:59:03.653Z,13.67
2019-01-15T13:01:52.034Z,16.60
2019-01-15T13:04:37.378Z,15.27
2019-01-15T13:07:25.835Z,16.90
2019-01-15T13:10:16.944Z,13.40
2019-01-15T13:13:03.778Z,13.87
2019-01-15T13:15:56.328Z,15.03
2019-01-15T13:18:52.804Z,18.30
2019-01-15T13:21:47.062Z,12.83
2019-01-15T13:24:53.694Z,17.07
2019-01-15T13:27:40.284Z,13.73
2019-01-15T13:30:37.466Z,15.17
2019-01-15T13:33:28.951Z,14.67
2019-01-15T13:36:18.208Z,9.77
2019-01-15T13:39:24.560Z,12.83
2019-01-15T13:42:24.879Z,12.50
2019-01-15T13:45:49.134Z,11.27
2019-01-15T13:48:44.501Z,10.33
2019-01-15T13:51:31.523Z,9.70
2019-01-15T13:54:18.788Z,10.83
2019-01-15T13:57:06.822Z,12.27
2019-01-15T14:00:09.402Z,10.80
2019-01-15T14:03:00.754Z,13.53
2019-01-15T14:05:48.516Z,12.87
2019-01-15T14:08:39.093Z,10.73
2019-01-15T14:11:30.671Z,12.87
2019-01-15T14:14:17.661Z,12.70
2019-01-15T14:17:04.675Z,8.90
2019-01-15T14:19:52.203Z,12.17
2019-01-15T14:22:40.617Z,13.03
2019-01-15T14:25:37.025Z,13.60
2019-01-15T14:28:36.637Z,14.03
2019-01-15T14:31:31.182Z,16.87
2019-01-15T14:34:36.343Z,14.23
2019-01-15T14:37:25.899Z,13.87
2019-01-15T14:40:13.239Z,15.53
2019-01-15T14:43:10.944Z,12.60
2019-01-15T14:46:00.402Z,15.97
2019-01-15T14:48:49.939Z,11.73
2019-01-15T14:51:50.441Z,12.00
2019-01-15T14:54:41.678Z,16.03
2019-01-15T14:57:32.894Z,12.90
2019-01-15T15:00:30.339Z,13.53
2019-01-15T15:03:19.697Z,9.13
2019-01-15T15:06:04.829Z,15.37
2019-01-15T15:08:47.301Z,11.10
2019-01-15T15:11:41.816Z,11.30
2019-01-15T15:14:33.257Z,12.60
2019-01-15T15:17:39.299Z,14.40
2019-01-15T15:20:51.018Z,15.13
2019-01-15T15:23:32.352Z,12.90
2019-01-15T15:26:27.186Z,14.07
2019-01-15T15:29:12.594Z,13.80
2019-01-15T15:31:57.925Z,15.30
2019-01-15T15:34:58.599Z,11.87
2019-01-15T15:37:58.932Z,19.10
2019-01-15T15:40:39.685Z,16.73
2019-01-15T15:43:34.328Z,13.93
2019-01-15T15:46:24.653Z,11.43
2019-01-15T15:49:11.874Z,12.00
2019-01-15T15:52:09.532Z,14.13
2019-01-15T15:54:57.587Z,16.50
2019-01-15T15:57:43.185Z,13.10
2019-01-15T16:00:45.701Z,15.77
2019-01-15T16:03:42.863Z,16.77
2019-01-15T16:06:40.841Z,11.53
2019-01-15T16:09:32.930Z,15.17
2019-01-15T16:12:20.006Z,11.50
2019-01-15T16:15:08.915Z,13.57
2019-01-15T16:18:04.351Z,18.23
2019-01-15T16:20:51.700Z,15.47
2019-01-15T16:23:53.128Z,13.07
2019-01-15T16:26:35.912Z,13.03
2019-01-15T16:29:27.549Z,14.47
2019-01-15T16:32:14.746Z,13.50
2019-01-15T16:35:03.681Z,11.90
2019-01-15T16:37:42.341Z,12.93
2019-01-15T16:40:40.946Z,14.97
2019-01-15T16:43:34.220Z,12.97
2019-01-15T16:46:26.176Z,11.40
2019-01-15T16:49:14.277Z,15.07
2019-01-15T16:51:59.424Z,13.07
2019-01-15T16:54:46.707Z,9.70
2019-01-15T16:57:44.381Z,10.00
2019-01-15T17:00:33.909Z,12.23
2019-01-15T17:03:21.681Z,15.03
2019-01-15T17:06:11.050Z,10.47
2019-01-15T17:08:58.001Z,16.67
2019-01-15T17:11:49.270Z,12.80
2019-01-15T17:14:54.113Z,9.23
2019-01-15T17:17:35.566Z,11.97
2019-01-15T17:20:31.753Z,12.83
2019-01-15T17:23:10.197Z,15.33
2019-01-15T17:25:57.020Z,12.50
2019-01-15T17:28:58.544Z,13.70
2019-01-15T17:31:42.989Z,13.77
2019-01-15T17:34:43.359Z,14.43
2019-01-15T17:37:37.693Z,14.67
2019-01-15T17:40:26.404Z,15.20
2019-01-15T17:43:17.508Z,13.27
2019-01-15T17:46:13.475Z,13.67
2019-01-15T17:49:09.941Z,14.97
2019-01-15T17:51:56.853Z,14.90
2019-01-15T17:54:49.306Z,15.30
2019-01-15T17:57:31.847Z,14.97
2019-01-15T18:00:38.580Z,13.77
2019-01-15T18:03:36.244Z,15.87
2019-01-15T18:06:40.194Z,16.30
2019-01-15T18:09:43.883Z,16.83
2019-01-15T18:12:47.525Z,20.10
2019-01-15T18:15:34.324Z,15.97
2019-01-15T18:18:25.774Z,15.00
2019-01-15T18:21:12.777Z,12.67
2019-01-15T18:24:12.311Z,13.97
2019-01-15T18:27:06.491Z,14.27
2019-01-15T18:29:43.795Z,14.73
2019-01-15T18:32:38.356Z,17.53
2019-01-15T18:35:25.654Z,16.77
2019-01-15T18:38:28.460Z,15.90
2019-01-15T18:41:15.413Z,13.97
2019-01-15T18:44:02.584Z,15.60
2019-01-15T18:46:55.815Z,15.73
2019-01-15T18:49:52.094Z,19.10
2019-01-15T18:52:55.789Z,15.67
2019-01-15T18:55:41.049Z,13.17
2019-01-15T18:58:19.955Z,14.10
2019-01-15T19:01:20.582Z,12.70
2019-01-15T19:04:11.677Z,18.97
2019-01-15T19:06:57.559Z,16.47
2019-01-15T19:09:46.632Z,18.33
2019-01-15T19:12:34.688Z,15.50
2019-01-15T19:15:38.361Z,15.07
2019-01-15T19:18:28.199Z,15.87
2019-01-15T19:21:21.990Z,14.90
2019-01-15T19:24:04.295Z,15.60
2019-01-15T19:26:57.443Z,12.40
2019-01-15T19:29:57.200Z,14.87
2019-01-15T19:32:51.426Z,16.23
2019-01-15T19:35:41.522Z,13.80
2019-01-15T19:38:29.517Z,14.83
2019-01-15T19:41:24.400Z,12.60
2019-01-15T19:44:11.633Z,13.37
2019-01-15T19:47:00.035Z,15.27
2019-01-15T19:49:40.933Z,15.27
2019-01-15T19:52:40.429Z,15.37
2019-01-15T19:55:38.025Z,14.17
2019-01-15T19:58:16.786Z,17.53
2019-01-15T20:00:59.126Z,16.23
2019-01-15T20:03:52.094Z,14.20
2019-01-15T20:06:55.590Z,13.43
2019-01-15T20:09:52.794Z,16.30
2019-01-15T20:12:52.538Z,13.43
2019-01-15T20:15:47.346Z,13.67
2019-01-15T20:18:34.576Z,13.20
2019-01-15T20:21:21.648Z,13.70
2019-01-15T20:24:12.941Z,10.93
2019-01-15T20:27:03.833Z,12.80
2019-01-15T20:30:00.487Z,13.17
2019-01-15T20:32:48.779Z,13.40
2019-01-15T20:35:37.267Z,13.27
2019-01-15T20:38:40.918Z,11.20
2019-01-15T20:41:32.359Z,11.83
2019-01-15T20:44:35.796Z,12.33
2019-01-15T20:47:27.078Z,13.97
2019-01-15T20:50:24.702Z,14.77
2019-01-15T20:53:16.419Z,12.17
2019-01-15T20:55:59.904Z,13.23
2019-01-15T20:58:49.431Z,15.37
2019-01-15T21:01:47.660Z,13.23
2019-01-15T21:04:59.445Z,12.43
2019-01-15T21:07:41.293Z,13.43
2019-01-15T21:10:34.750Z,11.43
2019-01-15T21:13:28.010Z,15.37
2019-01-15T21:16:18.231Z,12.67
2019-01-15T21:19:12.626Z,13.20
2019-01-15T21:22:15.052Z,17.33
2019-01-15T21:25:05.644Z,16.43
2019-01-15T21:27:52.905Z,12.20
2019-01-15T21:30:50.580Z,11.50
2019-01-15T21:33:54.690Z,14.27
2019-01-15T21:36:41.791Z,13.93
2019-01-15T21:39:34.337Z,14.40
2019-01-15T21:42:42.942Z,12.47
2019-01-15T21:45:51.118Z,11.63
2019-01-15T21:48:44.245Z,14.67
2019-01-15T21:51:46.387Z,13.47
2019-01-15T21:54:38.128Z,14.43
2019-01-15T21:57:27.853Z,13.70
2019-01-15T22:00:20.479Z,13.97
2019-01-15T22:03:02.207Z,11.37
2019-01-15T22:05:50.968Z,13.87
2019-01-15T22:08:45.309Z,14.50
2019-01-15T22:11:26.485Z,13.70
2019-01-15T22:14:22.210Z,15.10
2019-01-15T22:17:17.534Z,12.73
2019-01-15T22:20:05.525Z,13.77
2019-01-15T22:22:54.082Z,12.20
2019-01-15T22:25:46.238Z,10.87
2019-01-15T22:28:36.550Z,12.80
2019-01-15T22:31:32.899Z,12.67
2019-01-15T22:34:21.464Z,13.53
2019-01-15T22:37:12.705Z,13.53
2019-01-15T22:40:07.283Z,12.53
2019-01-15T22:42:59.523Z,15.47
2019-01-15T22:45:48.792Z,14.23
2019-01-15T22:48:43.058Z,13.57
2019-01-15T22:51:36.305Z,12.77
2019-01-15T22:54:30.002Z,13.37
2019-01-15T22:57:24.466Z,16.57
2019-01-15T23:00:11.632Z,14.33
2019-01-15T23:02:54.076Z,14.90
2019-01-15T23:05:51.711Z,14.77
2019-01-15T23:08:34.884Z,14.67
2019-01-15T23:11:25.589Z,15.23
2019-01-15T23:14:03.413Z,13.13
2019-01-15T23:17:10.302Z,14.23
2019-01-15T23:19:57.773Z,17.07
2019-01-15T23:22:52.532Z,14.80
2019-01-15T23:25:40.044Z,14.30
2019-01-15T23:28:34.664Z,16.43
2019-01-15T23:31:25.961Z,15.63
2019-01-15T23:34:17.628Z,15.00
2019-01-15T23:37:11.785Z,15.67
2019-01-15T23:39:59.362Z,13.73
2019-01-15T23:42:57.471Z,14.40
2019-01-15T23:46:02.344Z,14.67
2019-01-15T23:48:44.747Z,12.00
2019-01-15T23:51:32.184Z,13.83
2019-01-15T23:54:17.979Z,14.57
2019-01-15T23:57:15.745Z,14.03
